sensor_id;sensor_type;location;lat;lon;timestamp;P1;durP1;ratioP1;P2;durP2;ratioP2
4963;SDS011;2497;47.410;9.740;2022-08-04T00:00:49;4.70;;;3.70;;
4963;SDS011;2497;47.410;9.740;2022-08-04T00:03:27;4.87;;;2.93;;
4963;SDS011;2497;47.410;9.740;2022-08-04T00:05:59;4.80;;;3.00;;
4963;SDS011;2497;47.410;9.740;2022-08-04T00:08:33;4.67;;;3.20;;
4963;SDS011;2497;47.410;9.740;2022-08-04T00:11:11;5.37;;;3.20;;
4963;SDS011;2497;47.410;9.740;2022-08-04T00:13:42;5.43;;;3.00;;
4963;SDS011;2497;47.410;9.740;2022-08-04T00:16:20;4.93;;;3.00;;
4963;SDS011;2497;47.410;9.740;2022-08-04T00:18:49;3.50;;;2.57;;
4963;SDS011;2497;47.410;9.740;2022-08-04T00:21:22;6.33;;;3.70;;
4963;SDS011;2497;47.410;9.740;2022-08-04T00:23:53;3.77;;;2.80;;
4963;SDS011;2497;47.410;9.740;2022-08-04T00:26:21;5.60;;;3.20;;
4963;SDS011;2497;47.410;9.740;2022-08-04T00:28:49;4.57;;;2.93;;
4963;SDS011;2497;47.410;9.740;2022-08-04T00:31:17;5.57;;;3.30;;
4963;SDS011;2497;47.410;9.740;2022-08-04T00:33:45;4.80;;;3.40;;
4963;SDS011;2497;47.410;9.740;2022-08-04T00:36:15;5.40;;;3.40;;
4963;SDS011;2497;47.410;9.740;2022-08-04T00:38:43;5.03;;;3.57;;
4963;SDS011;2497;47.410;9.740;2022-08-04T00:41:15;5.63;;;3.40;;
4963;SDS011;2497;47.410;9.740;2022-08-04T00:43:54;6.77;;;3.27;;
4963;SDS011;2497;47.410;9.740;2022-08-04T00:46:43;5.67;;;3.40;;
4963;SDS011;2497;47.410;9.740;2022-08-04T00:49:35;9.47;;;3.37;;
4963;SDS011;2497;47.410;9.740;2022-08-04T00:52:28;7.60;;;3.20;;
4963;SDS011;2497;47.410;9.740;2022-08-04T00:55:03;3.83;;;2.73;;
4963;SDS011;2497;47.410;9.740;2022-08-04T01:00:43;4.90;;;2.80;;
4963;SDS011;2497;47.410;9.740;2022-08-04T01:03:21;4.50;;;3.33;;
4963;SDS011;2497;47.410;9.740;2022-08-04T01:06:10;7.60;;;3.47;;
4963;SDS011;2497;47.410;9.740;2022-08-04T01:08:53;6.63;;;3.67;;
4963;SDS011;2497;47.410;9.740;2022-08-04T01:11:36;13.80;;;3.53;;
4963;SDS011;2497;47.410;9.740;2022-08-04T01:14:24;5.93;;;3.10;;
4963;SDS011;2497;47.410;9.740;2022-08-04T01:17:05;5.47;;;3.20;;
4963;SDS011;2497;47.410;9.740;2022-08-04T01:19:53;5.97;;;3.13;;
4963;SDS011;2497;47.410;9.740;2022-08-04T01:25:51;5.70;;;3.07;;
4963;SDS011;2497;47.410;9.740;2022-08-04T01:28:35;5.60;;;3.77;;
4963;SDS011;2497;47.410;9.740;2022-08-04T01:31:14;5.17;;;3.43;;
4963;SDS011;2497;47.410;9.740;2022-08-04T01:33:47;6.67;;;3.50;;
4963;SDS011;2497;47.410;9.740;2022-08-04T01:36:16;4.70;;;3.33;;
4963;SDS011;2497;47.410;9.740;2022-08-04T01:38:48;3.43;;;2.93;;
4963;SDS011;2497;47.410;9.740;2022-08-04T01:41:16;3.80;;;2.90;;
4963;SDS011;2497;47.410;9.740;2022-08-04T01:43:46;3.67;;;3.00;;
4963;SDS011;2497;47.410;9.740;2022-08-04T01:46:15;5.17;;;3.67;;
4963;SDS011;2497;47.410;9.740;2022-08-04T01:48:45;3.67;;;3.30;;
4963;SDS011;2497;47.410;9.740;2022-08-04T01:51:13;4.07;;;3.10;;
4963;SDS011;2497;47.410;9.740;2022-08-04T01:53:41;4.77;;;3.17;;
4963;SDS011;2497;47.410;9.740;2022-08-04T01:56:10;4.80;;;3.43;;
4963;SDS011;2497;47.410;9.740;2022-08-04T01:58:38;4.17;;;3.27;;
4963;SDS011;2497;47.410;9.740;2022-08-04T02:01:07;5.07;;;3.10;;
4963;SDS011;2497;47.410;9.740;2022-08-04T02:03:38;5.77;;;2.90;;
4963;SDS011;2497;47.410;9.740;2022-08-04T02:06:09;4.57;;;3.37;;
4963;SDS011;2497;47.410;9.740;2022-08-04T02:08:45;5.43;;;3.00;;
4963;SDS011;2497;47.410;9.740;2022-08-04T02:11:21;6.07;;;3.67;;
4963;SDS011;2497;47.410;9.740;2022-08-04T02:13:52;4.20;;;2.53;;
4963;SDS011;2497;47.410;9.740;2022-08-04T02:16:27;3.70;;;3.20;;
4963;SDS011;2497;47.410;9.740;2022-08-04T02:19:04;4.00;;;3.23;;
4963;SDS011;2497;47.410;9.740;2022-08-04T02:21:39;4.07;;;2.83;;
4963;SDS011;2497;47.410;9.740;2022-08-04T02:24:10;4.77;;;3.17;;
4963;SDS011;2497;47.410;9.740;2022-08-04T02:26:41;4.03;;;3.30;;
4963;SDS011;2497;47.410;9.740;2022-08-04T02:29:12;5.80;;;3.60;;
4963;SDS011;2497;47.410;9.740;2022-08-04T02:31:45;4.27;;;2.97;;
4963;SDS011;2497;47.410;9.740;2022-08-04T02:34:21;4.10;;;2.83;;
4963;SDS011;2497;47.410;9.740;2022-08-04T02:36:54;5.43;;;3.30;;
4963;SDS011;2497;47.410;9.740;2022-08-04T02:39:22;5.50;;;3.50;;
4963;SDS011;2497;47.410;9.740;2022-08-04T02:41:51;5.80;;;2.70;;
4963;SDS011;2497;47.410;9.740;2022-08-04T02:44:21;6.13;;;3.67;;
4963;SDS011;2497;47.410;9.740;2022-08-04T02:46:50;9.70;;;3.10;;
4963;SDS011;2497;47.410;9.740;2022-08-04T02:49:21;3.93;;;2.83;;
4963;SDS011;2497;47.410;9.740;2022-08-04T02:51:49;4.50;;;3.30;;
4963;SDS011;2497;47.410;9.740;2022-08-04T02:54:18;3.83;;;2.70;;
4963;SDS011;2497;47.410;9.740;2022-08-04T02:56:50;5.13;;;3.10;;
4963;SDS011;2497;47.410;9.740;2022-08-04T02:59:19;4.73;;;3.17;;
4963;SDS011;2497;47.410;9.740;2022-08-04T03:01:52;5.20;;;3.43;;
4963;SDS011;2497;47.410;9.740;2022-08-04T03:04:26;3.80;;;3.00;;
4963;SDS011;2497;47.410;9.740;2022-08-04T03:07:15;5.53;;;3.43;;
4963;SDS011;2497;47.410;9.740;2022-08-04T03:10:14;4.13;;;2.97;;
4963;SDS011;2497;47.410;9.740;2022-08-04T03:13:16;4.17;;;3.00;;
4963;SDS011;2497;47.410;9.740;2022-08-04T03:16:07;4.33;;;2.93;;
4963;SDS011;2497;47.410;9.740;2022-08-04T03:25:30;3.50;;;2.80;;
4963;SDS011;2497;47.410;9.740;2022-08-04T03:31:24;7.37;;;3.40;;
4963;SDS011;2497;47.410;9.740;2022-08-04T03:34:16;6.10;;;2.77;;
4963;SDS011;2497;47.410;9.740;2022-08-04T03:43:17;4.73;;;3.47;;
4963;SDS011;2497;47.410;9.740;2022-08-04T03:49:09;5.70;;;3.57;;
4963;SDS011;2497;47.410;9.740;2022-08-04T03:52:03;4.73;;;3.70;;
4963;SDS011;2497;47.410;9.740;2022-08-04T04:01:17;6.50;;;4.57;;
4963;SDS011;2497;47.410;9.740;2022-08-04T04:07:20;3.97;;;3.27;;
4963;SDS011;2497;47.410;9.740;2022-08-04T04:13:21;5.03;;;3.50;;
4963;SDS011;2497;47.410;9.740;2022-08-04T04:19:01;7.73;;;3.20;;
4963;SDS011;2497;47.410;9.740;2022-08-04T04:21:57;5.77;;;3.87;;
4963;SDS011;2497;47.410;9.740;2022-08-04T04:24:36;6.50;;;3.10;;
4963;SDS011;2497;47.410;9.740;2022-08-04T04:27:17;4.23;;;3.07;;
4963;SDS011;2497;47.410;9.740;2022-08-04T04:30:02;7.77;;;4.13;;
4963;SDS011;2497;47.410;9.740;2022-08-04T04:35:38;8.57;;;3.57;;
4963;SDS011;2497;47.410;9.740;2022-08-04T04:38:28;16.20;;;4.17;;
4963;SDS011;2497;47.410;9.740;2022-08-04T04:44:07;10.13;;;4.50;;
4963;SDS011;2497;47.410;9.740;2022-08-04T04:47:13;8.50;;;4.50;;
4963;SDS011;2497;47.410;9.740;2022-08-04T04:49:50;5.80;;;3.80;;
4963;SDS011;2497;47.410;9.740;2022-08-04T04:52:26;16.23;;;4.90;;
4963;SDS011;2497;47.410;9.740;2022-08-04T04:55:03;5.03;;;3.60;;
4963;SDS011;2497;47.410;9.740;2022-08-04T04:57:35;28.60;;;5.93;;
4963;SDS011;2497;47.410;9.740;2022-08-04T05:00:05;4.90;;;3.77;;
4963;SDS011;2497;47.410;9.740;2022-08-04T05:05:51;8.63;;;3.97;;
4963;SDS011;2497;47.410;9.740;2022-08-04T05:09:02;5.93;;;4.20;;
4963;SDS011;2497;47.410;9.740;2022-08-04T05:14:40;8.17;;;4.43;;
4963;SDS011;2497;47.410;9.740;2022-08-04T05:17:14;7.17;;;4.13;;
4963;SDS011;2497;47.410;9.740;2022-08-04T05:19:56;6.60;;;4.57;;
4963;SDS011;2497;47.410;9.740;2022-08-04T05:22:27;5.87;;;4.30;;
4963;SDS011;2497;47.410;9.740;2022-08-04T05:25:00;8.70;;;4.77;;
4963;SDS011;2497;47.410;9.740;2022-08-04T05:27:35;7.40;;;4.23;;
4963;SDS011;2497;47.410;9.740;2022-08-04T05:30:06;7.80;;;4.50;;
4963;SDS011;2497;47.410;9.740;2022-08-04T05:32:37;7.10;;;4.63;;
4963;SDS011;2497;47.410;9.740;2022-08-04T05:35:18;6.70;;;4.70;;
4963;SDS011;2497;47.410;9.740;2022-08-04T05:37:56;7.10;;;4.27;;
4963;SDS011;2497;47.410;9.740;2022-08-04T05:40:28;6.27;;;4.40;;
4963;SDS011;2497;47.410;9.740;2022-08-04T05:42:58;5.93;;;3.47;;
4963;SDS011;2497;47.410;9.740;2022-08-04T05:45:34;6.40;;;4.10;;
4963;SDS011;2497;47.410;9.740;2022-08-04T05:48:05;5.80;;;4.30;;
4963;SDS011;2497;47.410;9.740;2022-08-04T05:50:43;8.43;;;3.80;;
4963;SDS011;2497;47.410;9.740;2022-08-04T05:53:14;7.20;;;4.80;;
4963;SDS011;2497;47.410;9.740;2022-08-04T05:55:51;11.60;;;3.90;;
4963;SDS011;2497;47.410;9.740;2022-08-04T05:58:23;6.33;;;3.90;;
4963;SDS011;2497;47.410;9.740;2022-08-04T06:00:56;5.20;;;3.70;;
4963;SDS011;2497;47.410;9.740;2022-08-04T06:03:28;7.30;;;3.60;;
4963;SDS011;2497;47.410;9.740;2022-08-04T06:06:11;5.13;;;3.47;;
4963;SDS011;2497;47.410;9.740;2022-08-04T06:08:49;5.00;;;3.70;;
4963;SDS011;2497;47.410;9.740;2022-08-04T06:11:24;7.70;;;4.87;;
4963;SDS011;2497;47.410;9.740;2022-08-04T06:13:57;6.80;;;4.17;;
4963;SDS011;2497;47.410;9.740;2022-08-04T06:16:37;12.53;;;3.90;;
4963;SDS011;2497;47.410;9.740;2022-08-04T06:19:13;7.73;;;4.43;;
4963;SDS011;2497;47.410;9.740;2022-08-04T06:21:51;7.60;;;4.00;;
4963;SDS011;2497;47.410;9.740;2022-08-04T06:24:27;6.10;;;4.20;;
4963;SDS011;2497;47.410;9.740;2022-08-04T06:27:02;7.53;;;4.43;;
4963;SDS011;2497;47.410;9.740;2022-08-04T06:29:38;5.00;;;3.80;;
4963;SDS011;2497;47.410;9.740;2022-08-04T06:32:10;6.30;;;4.63;;
4963;SDS011;2497;47.410;9.740;2022-08-04T06:34:50;5.37;;;4.40;;
4963;SDS011;2497;47.410;9.740;2022-08-04T06:37:21;5.00;;;3.90;;
4963;SDS011;2497;47.410;9.740;2022-08-04T06:39:49;6.67;;;4.07;;
4963;SDS011;2497;47.410;9.740;2022-08-04T06:42:20;13.60;;;5.43;;
4963;SDS011;2497;47.410;9.740;2022-08-04T06:44:48;7.07;;;4.83;;
4963;SDS011;2497;47.410;9.740;2022-08-04T06:47:17;6.40;;;4.03;;
4963;SDS011;2497;47.410;9.740;2022-08-04T06:49:45;5.47;;;4.10;;
4963;SDS011;2497;47.410;9.740;2022-08-04T06:52:14;4.17;;;3.77;;
4963;SDS011;2497;47.410;9.740;2022-08-04T06:54:45;5.80;;;3.60;;
4963;SDS011;2497;47.410;9.740;2022-08-04T06:57:14;7.07;;;4.40;;
4963;SDS011;2497;47.410;9.740;2022-08-04T06:59:45;6.17;;;4.57;;
4963;SDS011;2497;47.410;9.740;2022-08-04T07:02:17;7.50;;;4.17;;
4963;SDS011;2497;47.410;9.740;2022-08-04T07:04:48;4.90;;;4.07;;
4963;SDS011;2497;47.410;9.740;2022-08-04T07:07:15;7.03;;;3.67;;
4963;SDS011;2497;47.410;9.740;2022-08-04T07:09:45;6.40;;;4.37;;
4963;SDS011;2497;47.410;9.740;2022-08-04T07:12:13;7.73;;;3.53;;
4963;SDS011;2497;47.410;9.740;2022-08-04T07:14:44;6.57;;;4.63;;
4963;SDS011;2497;47.410;9.740;2022-08-04T07:17:13;6.93;;;4.53;;
4963;SDS011;2497;47.410;9.740;2022-08-04T07:19:42;8.20;;;4.23;;
4963;SDS011;2497;47.410;9.740;2022-08-04T07:22:09;6.70;;;3.73;;
4963;SDS011;2497;47.410;9.740;2022-08-04T07:24:37;9.57;;;4.23;;
4963;SDS011;2497;47.410;9.740;2022-08-04T07:27:08;4.53;;;3.93;;
4963;SDS011;2497;47.410;9.740;2022-08-04T07:29:36;7.23;;;3.83;;
4963;SDS011;2497;47.410;9.740;2022-08-04T07:32:05;3.93;;;3.30;;
4963;SDS011;2497;47.410;9.740;2022-08-04T07:34:35;5.93;;;4.30;;
4963;SDS011;2497;47.410;9.740;2022-08-04T07:37:03;7.57;;;3.97;;
4963;SDS011;2497;47.410;9.740;2022-08-04T07:39:31;6.50;;;4.50;;
4963;SDS011;2497;47.410;9.740;2022-08-04T07:42:01;6.03;;;3.97;;
4963;SDS011;2497;47.410;9.740;2022-08-04T07:44:31;5.70;;;4.10;;
4963;SDS011;2497;47.410;9.740;2022-08-04T07:47:00;4.67;;;3.77;;
4963;SDS011;2497;47.410;9.740;2022-08-04T07:49:29;5.50;;;4.17;;
4963;SDS011;2497;47.410;9.740;2022-08-04T07:51:57;4.90;;;3.83;;
4963;SDS011;2497;47.410;9.740;2022-08-04T07:54:26;6.97;;;3.50;;
4963;SDS011;2497;47.410;9.740;2022-08-04T07:56:54;13.73;;;3.63;;
4963;SDS011;2497;47.410;9.740;2022-08-04T07:59:22;5.97;;;3.90;;
4963;SDS011;2497;47.410;9.740;2022-08-04T08:01:51;7.50;;;3.87;;
4963;SDS011;2497;47.410;9.740;2022-08-04T08:04:19;7.80;;;4.10;;
4963;SDS011;2497;47.410;9.740;2022-08-04T08:06:48;4.70;;;3.80;;
4963;SDS011;2497;47.410;9.740;2022-08-04T08:09:17;5.40;;;3.87;;
4963;SDS011;2497;47.410;9.740;2022-08-04T08:11:47;5.30;;;3.93;;
4963;SDS011;2497;47.410;9.740;2022-08-04T08:14:15;7.00;;;4.10;;
4963;SDS011;2497;47.410;9.740;2022-08-04T08:16:43;4.30;;;3.83;;
4963;SDS011;2497;47.410;9.740;2022-08-04T08:19:12;5.77;;;4.20;;
4963;SDS011;2497;47.410;9.740;2022-08-04T08:21:41;4.80;;;4.00;;
4963;SDS011;2497;47.410;9.740;2022-08-04T08:24:14;5.43;;;4.10;;
4963;SDS011;2497;47.410;9.740;2022-08-04T08:26:41;4.40;;;3.70;;
4963;SDS011;2497;47.410;9.740;2022-08-04T08:29:09;5.97;;;3.40;;
4963;SDS011;2497;47.410;9.740;2022-08-04T08:31:36;4.40;;;3.47;;
4963;SDS011;2497;47.410;9.740;2022-08-04T08:34:03;6.43;;;3.53;;
4963;SDS011;2497;47.410;9.740;2022-08-04T08:36:34;6.10;;;3.80;;
4963;SDS011;2497;47.410;9.740;2022-08-04T08:39:06;5.07;;;3.70;;
4963;SDS011;2497;47.410;9.740;2022-08-04T08:47:49;5.57;;;4.10;;
4963;SDS011;2497;47.410;9.740;2022-08-04T08:53:41;5.03;;;3.60;;
4963;SDS011;2497;47.410;9.740;2022-08-04T08:56:17;8.20;;;3.70;;
4963;SDS011;2497;47.410;9.740;2022-08-04T09:02:11;12.40;;;4.30;;
4963;SDS011;2497;47.410;9.740;2022-08-04T09:05:01;5.90;;;3.80;;
4963;SDS011;2497;47.410;9.740;2022-08-04T09:07:56;4.90;;;3.90;;
4963;SDS011;2497;47.410;9.740;2022-08-04T09:10:35;4.80;;;3.70;;
4963;SDS011;2497;47.410;9.740;2022-08-04T09:13:14;4.00;;;3.60;;
4963;SDS011;2497;47.410;9.740;2022-08-04T09:15:46;4.20;;;3.80;;
4963;SDS011;2497;47.410;9.740;2022-08-04T09:18:21;6.53;;;4.70;;
4963;SDS011;2497;47.410;9.740;2022-08-04T09:20:54;6.23;;;4.57;;
4963;SDS011;2497;47.410;9.740;2022-08-04T09:23:27;5.40;;;3.70;;
4963;SDS011;2497;47.410;9.740;2022-08-04T09:28:53;12.70;;;4.10;;
4963;SDS011;2497;47.410;9.740;2022-08-04T09:31:34;6.07;;;3.80;;
4963;SDS011;2497;47.410;9.740;2022-08-04T09:34:11;4.13;;;3.73;;
4963;SDS011;2497;47.410;9.740;2022-08-04T09:36:50;4.57;;;3.37;;
4963;SDS011;2497;47.410;9.740;2022-08-04T09:39:28;5.40;;;3.57;;
4963;SDS011;2497;47.410;9.740;2022-08-04T09:42:11;4.77;;;3.60;;
4963;SDS011;2497;47.410;9.740;2022-08-04T09:44:47;7.53;;;3.53;;
4963;SDS011;2497;47.410;9.740;2022-08-04T09:47:22;5.90;;;3.80;;
4963;SDS011;2497;47.410;9.740;2022-08-04T09:49:57;6.83;;;3.40;;
4963;SDS011;2497;47.410;9.740;2022-08-04T09:52:31;7.20;;;4.70;;
4963;SDS011;2497;47.410;9.740;2022-08-04T09:55:10;3.63;;;3.30;;
4963;SDS011;2497;47.410;9.740;2022-08-04T09:57:50;5.63;;;3.57;;
4963;SDS011;2497;47.410;9.740;2022-08-04T10:00:24;7.80;;;4.17;;
4963;SDS011;2497;47.410;9.740;2022-08-04T10:02:58;3.80;;;3.40;;
4963;SDS011;2497;47.410;9.740;2022-08-04T10:05:32;3.47;;;2.83;;
4963;SDS011;2497;47.410;9.740;2022-08-04T10:08:17;4.43;;;3.80;;
4963;SDS011;2497;47.410;9.740;2022-08-04T10:10:57;3.77;;;3.23;;
4963;SDS011;2497;47.410;9.740;2022-08-04T10:13:37;5.27;;;3.20;;
4963;SDS011;2497;47.410;9.740;2022-08-04T10:19:06;3.03;;;2.73;;
4963;SDS011;2497;47.410;9.740;2022-08-04T10:21:48;4.10;;;3.40;;
4963;SDS011;2497;47.410;9.740;2022-08-04T10:24:28;7.40;;;3.17;;
4963;SDS011;2497;47.410;9.740;2022-08-04T10:27:10;2.77;;;2.57;;
4963;SDS011;2497;47.410;9.740;2022-08-04T10:29:43;3.77;;;2.90;;
4963;SDS011;2497;47.410;9.740;2022-08-04T10:32:13;3.13;;;2.80;;
4963;SDS011;2497;47.410;9.740;2022-08-04T10:34:47;3.20;;;2.90;;
4963;SDS011;2497;47.410;9.740;2022-08-04T10:37:27;4.13;;;2.87;;
4963;SDS011;2497;47.410;9.740;2022-08-04T10:40:04;3.07;;;2.77;;
4963;SDS011;2497;47.410;9.740;2022-08-04T10:42:55;4.07;;;2.80;;
4963;SDS011;2497;47.410;9.740;2022-08-04T10:45:31;3.93;;;3.00;;
4963;SDS011;2497;47.410;9.740;2022-08-04T10:48:05;3.20;;;2.90;;
4963;SDS011;2497;47.410;9.740;2022-08-04T10:50:38;2.60;;;2.40;;
4963;SDS011;2497;47.410;9.740;2022-08-04T10:53:11;2.83;;;2.53;;
4963;SDS011;2497;47.410;9.740;2022-08-04T10:55:46;2.90;;;2.60;;
4963;SDS011;2497;47.410;9.740;2022-08-04T10:58:18;4.10;;;2.80;;
4963;SDS011;2497;47.410;9.740;2022-08-04T11:00:48;5.03;;;2.63;;
4963;SDS011;2497;47.410;9.740;2022-08-04T11:03:22;3.10;;;2.73;;
4963;SDS011;2497;47.410;9.740;2022-08-04T11:05:57;2.60;;;2.40;;
4963;SDS011;2497;47.410;9.740;2022-08-04T11:08:30;3.00;;;2.50;;
4963;SDS011;2497;47.410;9.740;2022-08-04T11:11:14;3.23;;;2.30;;
4963;SDS011;2497;47.410;9.740;2022-08-04T11:13:52;3.20;;;2.90;;
4963;SDS011;2497;47.410;9.740;2022-08-04T11:16:35;4.07;;;2.70;;
4963;SDS011;2497;47.410;9.740;2022-08-04T11:21:56;3.47;;;2.73;;
4963;SDS011;2497;47.410;9.740;2022-08-04T11:24:33;3.20;;;2.67;;
4963;SDS011;2497;47.410;9.740;2022-08-04T11:27:42;3.57;;;3.00;;
4963;SDS011;2497;47.410;9.740;2022-08-04T11:30:19;5.83;;;2.90;;
4963;SDS011;2497;47.410;9.740;2022-08-04T11:32:52;3.27;;;2.97;;
4963;SDS011;2497;47.410;9.740;2022-08-04T11:35:28;3.13;;;2.30;;
4963;SDS011;2497;47.410;9.740;2022-08-04T11:38:03;4.87;;;3.03;;
4963;SDS011;2497;47.410;9.740;2022-08-04T11:40:38;5.23;;;2.90;;
4963;SDS011;2497;47.410;9.740;2022-08-04T11:43:08;2.77;;;2.57;;
4963;SDS011;2497;47.410;9.740;2022-08-04T11:45:40;2.73;;;2.50;;
4963;SDS011;2497;47.410;9.740;2022-08-04T11:48:21;5.40;;;2.90;;
4963;SDS011;2497;47.410;9.740;2022-08-04T11:50:56;3.20;;;2.87;;
4963;SDS011;2497;47.410;9.740;2022-08-04T11:53:29;3.27;;;2.90;;
4963;SDS011;2497;47.410;9.740;2022-08-04T11:56:01;5.50;;;3.00;;
4963;SDS011;2497;47.410;9.740;2022-08-04T11:58:30;4.57;;;3.20;;
4963;SDS011;2497;47.410;9.740;2022-08-04T12:01:01;7.40;;;2.97;;
4963;SDS011;2497;47.410;9.740;2022-08-04T12:03:36;3.90;;;2.23;;
4963;SDS011;2497;47.410;9.740;2022-08-04T12:06:13;4.10;;;3.33;;
4963;SDS011;2497;47.410;9.740;2022-08-04T12:08:53;2.90;;;2.57;;
4963;SDS011;2497;47.410;9.740;2022-08-04T12:14:32;2.70;;;2.50;;
4963;SDS011;2497;47.410;9.740;2022-08-04T12:17:09;4.57;;;2.83;;
4963;SDS011;2497;47.410;9.740;2022-08-04T12:19:42;3.33;;;2.33;;
4963;SDS011;2497;47.410;9.740;2022-08-04T12:22:17;3.30;;;2.20;;
4963;SDS011;2497;47.410;9.740;2022-08-04T12:24:51;5.27;;;2.80;;
4963;SDS011;2497;47.410;9.740;2022-08-04T12:27:26;2.50;;;2.30;;
4963;SDS011;2497;47.410;9.740;2022-08-04T12:29:58;2.97;;;2.43;;
4963;SDS011;2497;47.410;9.740;2022-08-04T12:32:28;3.70;;;2.57;;
4963;SDS011;2497;47.410;9.740;2022-08-04T12:35:07;3.00;;;2.50;;
4963;SDS011;2497;47.410;9.740;2022-08-04T12:37:43;2.73;;;2.40;;
4963;SDS011;2497;47.410;9.740;2022-08-04T12:40:19;3.13;;;2.73;;
4963;SDS011;2497;47.410;9.740;2022-08-04T12:42:53;3.83;;;2.70;;
4963;SDS011;2497;47.410;9.740;2022-08-04T12:45:24;3.97;;;2.80;;
4963;SDS011;2497;47.410;9.740;2022-08-04T12:47:53;4.40;;;3.00;;
4963;SDS011;2497;47.410;9.740;2022-08-04T12:50:25;3.00;;;2.50;;
4963;SDS011;2497;47.410;9.740;2022-08-04T12:52:53;6.57;;;2.57;;
4963;SDS011;2497;47.410;9.740;2022-08-04T12:55:24;3.17;;;2.80;;
4963;SDS011;2497;47.410;9.740;2022-08-04T12:57:53;4.47;;;2.63;;
4963;SDS011;2497;47.410;9.740;2022-08-04T13:00:23;7.20;;;2.70;;
4963;SDS011;2497;47.410;9.740;2022-08-04T13:02:53;5.30;;;3.30;;
4963;SDS011;2497;47.410;9.740;2022-08-04T13:05:32;2.87;;;2.50;;
4963;SDS011;2497;47.410;9.740;2022-08-04T13:08:01;3.77;;;2.50;;
4963;SDS011;2497;47.410;9.740;2022-08-04T13:10:30;3.20;;;2.90;;
4963;SDS011;2497;47.410;9.740;2022-08-04T13:13:02;4.10;;;2.67;;
4963;SDS011;2497;47.410;9.740;2022-08-04T13:15:30;4.33;;;3.17;;
4963;SDS011;2497;47.410;9.740;2022-08-04T13:17:58;2.83;;;2.50;;
4963;SDS011;2497;47.410;9.740;2022-08-04T13:20:28;3.60;;;2.83;;
4963;SDS011;2497;47.410;9.740;2022-08-04T13:23:05;4.20;;;2.60;;
4963;SDS011;2497;47.410;9.740;2022-08-04T13:25:34;3.33;;;2.63;;
4963;SDS011;2497;47.410;9.740;2022-08-04T13:28:04;4.80;;;2.67;;
4963;SDS011;2497;47.410;9.740;2022-08-04T13:30:38;2.87;;;2.50;;
4963;SDS011;2497;47.410;9.740;2022-08-04T13:33:06;3.00;;;2.70;;
4963;SDS011;2497;47.410;9.740;2022-08-04T13:35:34;2.80;;;2.50;;
4963;SDS011;2497;47.410;9.740;2022-08-04T13:38:10;4.33;;;2.83;;
4963;SDS011;2497;47.410;9.740;2022-08-04T13:40:39;4.10;;;2.67;;
4963;SDS011;2497;47.410;9.740;2022-08-04T13:43:09;5.20;;;2.27;;
4963;SDS011;2497;47.410;9.740;2022-08-04T13:45:48;3.03;;;2.57;;
4963;SDS011;2497;47.410;9.740;2022-08-04T13:48:16;3.83;;;2.80;;
4963;SDS011;2497;47.410;9.740;2022-08-04T13:50:44;3.03;;;2.43;;
4963;SDS011;2497;47.410;9.740;2022-08-04T13:53:16;3.00;;;2.47;;
4963;SDS011;2497;47.410;9.740;2022-08-04T13:55:44;3.23;;;2.10;;
4963;SDS011;2497;47.410;9.740;2022-08-04T13:58:17;2.20;;;2.00;;
4963;SDS011;2497;47.410;9.740;2022-08-04T14:00:48;3.00;;;2.10;;
4963;SDS011;2497;47.410;9.740;2022-08-04T14:03:24;4.13;;;2.37;;
4963;SDS011;2497;47.410;9.740;2022-08-04T14:08:53;3.13;;;2.30;;
4963;SDS011;2497;47.410;9.740;2022-08-04T14:11:29;2.33;;;2.10;;
4963;SDS011;2497;47.410;9.740;2022-08-04T14:13:59;2.73;;;2.00;;
4963;SDS011;2497;47.410;9.740;2022-08-04T14:16:38;3.70;;;1.87;;
4963;SDS011;2497;47.410;9.740;2022-08-04T14:19:24;2.23;;;1.93;;
4963;SDS011;2497;47.410;9.740;2022-08-04T14:21:52;3.00;;;1.83;;
4963;SDS011;2497;47.410;9.740;2022-08-04T14:24:24;2.13;;;1.93;;
4963;SDS011;2497;47.410;9.740;2022-08-04T14:26:57;2.27;;;2.07;;
4963;SDS011;2497;47.410;9.740;2022-08-04T14:29:25;3.50;;;2.03;;
4963;SDS011;2497;47.410;9.740;2022-08-04T14:32:03;3.77;;;2.30;;
4963;SDS011;2497;47.410;9.740;2022-08-04T14:34:36;2.30;;;1.80;;
4963;SDS011;2497;47.410;9.740;2022-08-04T14:37:05;2.00;;;1.80;;
4963;SDS011;2497;47.410;9.740;2022-08-04T14:39:39;2.50;;;1.90;;
4963;SDS011;2497;47.410;9.740;2022-08-04T14:42:08;5.63;;;1.80;;
4963;SDS011;2497;47.410;9.740;2022-08-04T14:44:51;1.93;;;1.83;;
4963;SDS011;2497;47.410;9.740;2022-08-04T14:47:30;1.93;;;1.70;;
4963;SDS011;2497;47.410;9.740;2022-08-04T14:50:05;3.60;;;1.80;;
4963;SDS011;2497;47.410;9.740;2022-08-04T14:52:33;2.50;;;1.97;;
4963;SDS011;2497;47.410;9.740;2022-08-04T14:57:46;6.60;;;2.00;;
4963;SDS011;2497;47.410;9.740;2022-08-04T15:00:22;3.97;;;1.73;;
4963;SDS011;2497;47.410;9.740;2022-08-04T15:02:51;1.83;;;1.70;;
4963;SDS011;2497;47.410;9.740;2022-08-04T15:05:19;2.13;;;1.93;;
4963;SDS011;2497;47.410;9.740;2022-08-04T15:07:47;2.43;;;1.67;;
4963;SDS011;2497;47.410;9.740;2022-08-04T15:10:15;2.30;;;1.80;;
4963;SDS011;2497;47.410;9.740;2022-08-04T15:12:44;1.90;;;1.70;;
4963;SDS011;2497;47.410;9.740;2022-08-04T15:15:12;2.37;;;2.10;;
4963;SDS011;2497;47.410;9.740;2022-08-04T15:17:41;2.17;;;1.87;;
4963;SDS011;2497;47.410;9.740;2022-08-04T15:20:09;2.90;;;1.97;;
4963;SDS011;2497;47.410;9.740;2022-08-04T15:22:38;2.13;;;2.00;;
4963;SDS011;2497;47.410;9.740;2022-08-04T15:25:05;2.77;;;2.20;;
4963;SDS011;2497;47.410;9.740;2022-08-04T15:27:33;2.17;;;1.97;;
4963;SDS011;2497;47.410;9.740;2022-08-04T15:30:06;2.77;;;1.73;;
4963;SDS011;2497;47.410;9.740;2022-08-04T15:32:36;3.50;;;2.17;;
4963;SDS011;2497;47.410;9.740;2022-08-04T15:35:08;2.20;;;2.00;;
4963;SDS011;2497;47.410;9.740;2022-08-04T15:37:38;2.50;;;1.93;;
4963;SDS011;2497;47.410;9.740;2022-08-04T15:40:12;2.37;;;2.00;;
4963;SDS011;2497;47.410;9.740;2022-08-04T15:42:43;3.13;;;2.10;;
4963;SDS011;2497;47.410;9.740;2022-08-04T15:51:00;2.53;;;2.00;;
4963;SDS011;2497;47.410;9.740;2022-08-04T15:53:31;2.10;;;1.90;;
4963;SDS011;2497;47.410;9.740;2022-08-04T15:59:09;7.30;;;2.50;;
4963;SDS011;2497;47.410;9.740;2022-08-04T16:01:38;4.03;;;2.07;;
4963;SDS011;2497;47.410;9.740;2022-08-04T16:04:22;2.30;;;2.10;;
4963;SDS011;2497;47.410;9.740;2022-08-04T16:06:50;3.17;;;2.37;;
4963;SDS011;2497;47.410;9.740;2022-08-04T16:09:29;2.47;;;2.10;;
4963;SDS011;2497;47.410;9.740;2022-08-04T16:11:58;3.03;;;2.43;;
4963;SDS011;2497;47.410;9.740;2022-08-04T16:14:29;5.77;;;2.63;;
4963;SDS011;2497;47.410;9.740;2022-08-04T16:22:37;3.00;;;2.50;;
4963;SDS011;2497;47.410;9.740;2022-08-04T16:25:06;2.67;;;2.47;;
4963;SDS011;2497;47.410;9.740;2022-08-04T16:27:35;3.50;;;2.23;;
4963;SDS011;2497;47.410;9.740;2022-08-04T16:30:07;2.40;;;2.20;;
4963;SDS011;2497;47.410;9.740;2022-08-04T16:32:42;4.30;;;2.27;;
4963;SDS011;2497;47.410;9.740;2022-08-04T16:35:17;4.40;;;2.20;;
4963;SDS011;2497;47.410;9.740;2022-08-04T16:37:51;2.53;;;2.33;;
4963;SDS011;2497;47.410;9.740;2022-08-04T16:40:25;4.50;;;2.30;;
4963;SDS011;2497;47.410;9.740;2022-08-04T16:42:57;2.27;;;1.83;;
4963;SDS011;2497;47.410;9.740;2022-08-04T16:48:18;3.87;;;2.30;;
4963;SDS011;2497;47.410;9.740;2022-08-04T16:50:47;2.80;;;2.37;;
4963;SDS011;2497;47.410;9.740;2022-08-04T16:53:26;3.33;;;2.33;;
4963;SDS011;2497;47.410;9.740;2022-08-04T16:55:54;5.83;;;2.83;;
4963;SDS011;2497;47.410;9.740;2022-08-04T16:58:24;4.30;;;3.13;;
4963;SDS011;2497;47.410;9.740;2022-08-04T17:00:52;2.27;;;2.07;;
4963;SDS011;2497;47.410;9.740;2022-08-04T17:03:21;3.10;;;2.10;;
4963;SDS011;2497;47.410;9.740;2022-08-04T17:05:48;2.53;;;2.23;;
4963;SDS011;2497;47.410;9.740;2022-08-04T17:08:16;3.90;;;2.30;;
4963;SDS011;2497;47.410;9.740;2022-08-04T17:10:46;3.00;;;2.70;;
4963;SDS011;2497;47.410;9.740;2022-08-04T17:13:20;4.43;;;2.87;;
4963;SDS011;2497;47.410;9.740;2022-08-04T17:15:50;3.27;;;2.53;;
4963;SDS011;2497;47.410;9.740;2022-08-04T17:18:22;7.70;;;2.63;;
4963;SDS011;2497;47.410;9.740;2022-08-04T17:20:51;8.30;;;2.83;;
4963;SDS011;2497;47.410;9.740;2022-08-04T17:23:27;3.40;;;2.63;;
4963;SDS011;2497;47.410;9.740;2022-08-04T17:26:02;5.10;;;2.40;;
4963;SDS011;2497;47.410;9.740;2022-08-04T17:28:31;3.37;;;2.60;;
4963;SDS011;2497;47.410;9.740;2022-08-04T17:30:59;6.30;;;2.53;;
4963;SDS011;2497;47.410;9.740;2022-08-04T17:33:30;4.40;;;2.37;;
4963;SDS011;2497;47.410;9.740;2022-08-04T17:35:58;3.40;;;2.80;;
4963;SDS011;2497;47.410;9.740;2022-08-04T17:38:31;2.83;;;2.53;;